sensor_id;sensor_type;location;lat;lon;timestamp;P1;durP1;ratioP1;P2;durP2;ratioP2
46589;SDS011;32313;48.722;9.362;2023-11-19T00:02:23;23.57;;;20.17;;
46589;SDS011;32313;48.722;9.362;2023-11-19T00:04:49;22.17;;;18.37;;
46589;SDS011;32313;48.722;9.362;2023-11-19T00:07:14;31.77;;;21.80;;
46589;SDS011;32313;48.722;9.362;2023-11-19T00:09:40;26.03;;;21.57;;
46589;SDS011;32313;48.722;9.362;2023-11-19T00:12:07;21.33;;;19.03;;
46589;SDS011;32313;48.722;9.362;2023-11-19T00:14:33;24.53;;;20.20;;
46589;SDS011;32313;48.722;9.362;2023-11-19T00:16:59;19.90;;;17.30;;
46589;SDS011;32313;48.722;9.362;2023-11-19T00:19:25;17.30;;;15.53;;
46589;SDS011;32313;48.722;9.362;2023-11-19T00:21:51;22.03;;;18.80;;
46589;SDS011;32313;48.722;9.362;2023-11-19T00:24:17;27.33;;;20.30;;
46589;SDS011;32313;48.722;9.362;2023-11-19T00:26:43;22.20;;;19.87;;
46589;SDS011;32313;48.722;9.362;2023-11-19T00:29:09;25.80;;;20.43;;
46589;SDS011;32313;48.722;9.362;2023-11-19T00:31:35;26.53;;;19.40;;
46589;SDS011;32313;48.722;9.362;2023-11-19T00:34:01;20.97;;;17.37;;
46589;SDS011;32313;48.722;9.362;2023-11-19T00:36:27;18.40;;;16.43;;
46589;SDS011;32313;48.722;9.362;2023-11-19T00:38:53;16.97;;;15.17;;
46589;SDS011;32313;48.722;9.362;2023-11-19T00:41:19;20.43;;;18.10;;
46589;SDS011;32313;48.722;9.362;2023-11-19T00:43:46;22.17;;;17.70;;
46589;SDS011;32313;48.722;9.362;2023-11-19T00:46:12;28.23;;;20.67;;
46589;SDS011;32313;48.722;9.362;2023-11-19T00:48:38;27.63;;;19.70;;
46589;SDS011;32313;48.722;9.362;2023-11-19T00:51:04;23.97;;;19.97;;
46589;SDS011;32313;48.722;9.362;2023-11-19T00:53:31;19.00;;;16.13;;
46589;SDS011;32313;48.722;9.362;2023-11-19T00:56:00;22.40;;;17.37;;
46589;SDS011;32313;48.722;9.362;2023-11-19T00:58:25;22.23;;;17.73;;
46589;SDS011;32313;48.722;9.362;2023-11-19T01:00:52;20.83;;;16.00;;
46589;SDS011;32313;48.722;9.362;2023-11-19T01:03:17;18.00;;;16.10;;
46589;SDS011;32313;48.722;9.362;2023-11-19T01:05:43;20.37;;;16.00;;
46589;SDS011;32313;48.722;9.362;2023-11-19T01:08:09;18.33;;;14.43;;
46589;SDS011;32313;48.722;9.362;2023-11-19T01:10:38;15.60;;;14.00;;
46589;SDS011;32313;48.722;9.362;2023-11-19T01:13:04;19.57;;;15.27;;
46589;SDS011;32313;48.722;9.362;2023-11-19T01:15:33;19.33;;;15.60;;
46589;SDS011;32313;48.722;9.362;2023-11-19T01:17:58;14.77;;;13.17;;
46589;SDS011;32313;48.722;9.362;2023-11-19T01:20:24;16.23;;;14.60;;
46589;SDS011;32313;48.722;9.362;2023-11-19T01:22:51;18.23;;;14.57;;
46589;SDS011;32313;48.722;9.362;2023-11-19T01:25:17;17.13;;;14.77;;
46589;SDS011;32313;48.722;9.362;2023-11-19T01:27:43;19.43;;;15.10;;
46589;SDS011;32313;48.722;9.362;2023-11-19T01:30:09;20.53;;;14.90;;
46589;SDS011;32313;48.722;9.362;2023-11-19T01:32:38;16.73;;;14.43;;
46589;SDS011;32313;48.722;9.362;2023-11-19T01:35:05;17.87;;;15.40;;
46589;SDS011;32313;48.722;9.362;2023-11-19T01:37:31;24.17;;;17.57;;
46589;SDS011;32313;48.722;9.362;2023-11-19T01:39:57;16.20;;;14.33;;
46589;SDS011;32313;48.722;9.362;2023-11-19T01:42:23;17.60;;;15.70;;
46589;SDS011;32313;48.722;9.362;2023-11-19T01:44:57;17.17;;;14.27;;
46589;SDS011;32313;48.722;9.362;2023-11-19T01:47:24;20.57;;;14.63;;
46589;SDS011;32313;48.722;9.362;2023-11-19T01:49:50;20.73;;;15.33;;
46589;SDS011;32313;48.722;9.362;2023-11-19T01:52:17;15.63;;;13.73;;
46589;SDS011;32313;48.722;9.362;2023-11-19T01:54:43;18.37;;;15.77;;
46589;SDS011;32313;48.722;9.362;2023-11-19T01:57:11;21.50;;;15.67;;
46589;SDS011;32313;48.722;9.362;2023-11-19T01:59:38;15.90;;;14.23;;
46589;SDS011;32313;48.722;9.362;2023-11-19T02:02:04;18.37;;;14.70;;
46589;SDS011;32313;48.722;9.362;2023-11-19T02:04:30;21.07;;;15.57;;
46589;SDS011;32313;48.722;9.362;2023-11-19T02:06:57;23.50;;;16.17;;
46589;SDS011;32313;48.722;9.362;2023-11-19T02:09:23;18.27;;;14.07;;
46589;SDS011;32313;48.722;9.362;2023-11-19T02:11:49;12.77;;;11.60;;
46589;SDS011;32313;48.722;9.362;2023-11-19T02:14:19;12.60;;;11.27;;
46589;SDS011;32313;48.722;9.362;2023-11-19T02:16:51;12.83;;;11.43;;
46589;SDS011;32313;48.722;9.362;2023-11-19T02:19:20;11.47;;;10.27;;
46589;SDS011;32313;48.722;9.362;2023-11-19T02:21:46;11.77;;;10.57;;
46589;SDS011;32313;48.722;9.362;2023-11-19T02:24:12;14.47;;;11.77;;
46589;SDS011;32313;48.722;9.362;2023-11-19T02:26:47;12.30;;;10.70;;
46589;SDS011;32313;48.722;9.362;2023-11-19T02:29:25;11.00;;;9.90;;
46589;SDS011;32313;48.722;9.362;2023-11-19T02:31:51;16.83;;;12.77;;
46589;SDS011;32313;48.722;9.362;2023-11-19T02:34:16;17.83;;;11.27;;
46589;SDS011;32313;48.722;9.362;2023-11-19T02:36:42;14.13;;;10.40;;
46589;SDS011;32313;48.722;9.362;2023-11-19T02:39:08;10.43;;;9.33;;
46589;SDS011;32313;48.722;9.362;2023-11-19T02:41:37;12.07;;;9.83;;
46589;SDS011;32313;48.722;9.362;2023-11-19T02:44:04;13.80;;;12.20;;
46589;SDS011;32313;48.722;9.362;2023-11-19T02:46:31;14.10;;;11.53;;
46589;SDS011;32313;48.722;9.362;2023-11-19T02:48:58;10.40;;;9.30;;
46589;SDS011;32313;48.722;9.362;2023-11-19T02:51:23;11.10;;;9.90;;
46589;SDS011;32313;48.722;9.362;2023-11-19T02:53:49;11.53;;;10.33;;
46589;SDS011;32313;48.722;9.362;2023-11-19T02:56:15;18.40;;;11.00;;
46589;SDS011;32313;48.722;9.362;2023-11-19T02:58:45;12.07;;;10.43;;
46589;SDS011;32313;48.722;9.362;2023-11-19T03:01:11;12.10;;;10.80;;
46589;SDS011;32313;48.722;9.362;2023-11-19T03:03:48;13.07;;;10.57;;
46589;SDS011;32313;48.722;9.362;2023-11-19T03:06:19;13.70;;;10.67;;
46589;SDS011;32313;48.722;9.362;2023-11-19T03:08:45;11.00;;;9.83;;
46589;SDS011;32313;48.722;9.362;2023-11-19T03:11:10;11.20;;;9.07;;
46589;SDS011;32313;48.722;9.362;2023-11-19T03:13:36;10.43;;;9.10;;
46589;SDS011;32313;48.722;9.362;2023-11-19T03:16:02;10.10;;;8.73;;
46589;SDS011;32313;48.722;9.362;2023-11-19T03:18:27;18.27;;;10.37;;
46589;SDS011;32313;48.722;9.362;2023-11-19T03:20:53;10.97;;;9.47;;
46589;SDS011;32313;48.722;9.362;2023-11-19T03:23:19;12.50;;;9.03;;
46589;SDS011;32313;48.722;9.362;2023-11-19T03:25:45;15.57;;;9.87;;
46589;SDS011;32313;48.722;9.362;2023-11-19T03:28:11;10.30;;;9.13;;
46589;SDS011;32313;48.722;9.362;2023-11-19T03:30:36;10.47;;;9.40;;
46589;SDS011;32313;48.722;9.362;2023-11-19T03:33:03;12.67;;;10.07;;
46589;SDS011;32313;48.722;9.362;2023-11-19T03:35:28;10.53;;;9.43;;
46589;SDS011;32313;48.722;9.362;2023-11-19T03:37:56;14.87;;;10.27;;
46589;SDS011;32313;48.722;9.362;2023-11-19T03:40:23;10.20;;;8.93;;
46589;SDS011;32313;48.722;9.362;2023-11-19T03:42:50;12.47;;;9.87;;
46589;SDS011;32313;48.722;9.362;2023-11-19T03:45:16;14.03;;;9.63;;
46589;SDS011;32313;48.722;9.362;2023-11-19T03:47:41;17.97;;;10.80;;
46589;SDS011;32313;48.722;9.362;2023-11-19T03:50:07;17.37;;;10.87;;
46589;SDS011;32313;48.722;9.362;2023-11-19T03:52:34;21.97;;;12.23;;
46589;SDS011;32313;48.722;9.362;2023-11-19T03:55:00;17.13;;;12.57;;
46589;SDS011;32313;48.722;9.362;2023-11-19T03:57:39;18.57;;;12.57;;
46589;SDS011;32313;48.722;9.362;2023-11-19T04:00:05;17.73;;;12.90;;
46589;SDS011;32313;48.722;9.362;2023-11-19T04:02:39;20.63;;;12.70;;
46589;SDS011;32313;48.722;9.362;2023-11-19T04:05:05;13.23;;;10.73;;
46589;SDS011;32313;48.722;9.362;2023-11-19T04:07:32;14.50;;;12.47;;
46589;SDS011;32313;48.722;9.362;2023-11-19T04:09:58;14.43;;;11.63;;
46589;SDS011;32313;48.722;9.362;2023-11-19T04:12:24;13.03;;;10.40;;
46589;SDS011;32313;48.722;9.362;2023-11-19T04:14:50;19.33;;;13.50;;
46589;SDS011;32313;48.722;9.362;2023-11-19T04:17:17;17.50;;;11.93;;
46589;SDS011;32313;48.722;9.362;2023-11-19T04:19:43;14.60;;;11.10;;
46589;SDS011;32313;48.722;9.362;2023-11-19T04:22:09;13.37;;;11.13;;
46589;SDS011;32313;48.722;9.362;2023-11-19T04:24:35;18.70;;;12.20;;
46589;SDS011;32313;48.722;9.362;2023-11-19T04:27:03;13.13;;;11.10;;
46589;SDS011;32313;48.722;9.362;2023-11-19T04:29:31;10.27;;;9.30;;
46589;SDS011;32313;48.722;9.362;2023-11-19T04:31:57;14.67;;;10.33;;
46589;SDS011;32313;48.722;9.362;2023-11-19T04:34:23;11.33;;;9.67;;
46589;SDS011;32313;48.722;9.362;2023-11-19T04:36:49;10.90;;;9.80;;
46589;SDS011;32313;48.722;9.362;2023-11-19T04:39:15;12.17;;;9.77;;
46589;SDS011;32313;48.722;9.362;2023-11-19T04:41:45;13.87;;;10.40;;
46589;SDS011;32313;48.722;9.362;2023-11-19T04:44:13;12.17;;;10.50;;
46589;SDS011;32313;48.722;9.362;2023-11-19T04:46:39;13.43;;;11.67;;
46589;SDS011;32313;48.722;9.362;2023-11-19T04:49:04;15.23;;;11.33;;
46589;SDS011;32313;48.722;9.362;2023-11-19T04:51:30;11.37;;;10.17;;
46589;SDS011;32313;48.722;9.362;2023-11-19T04:53:56;12.73;;;10.30;;
46589;SDS011;32313;48.722;9.362;2023-11-19T04:56:22;16.47;;;11.33;;
46589;SDS011;32313;48.722;9.362;2023-11-19T04:58:48;11.30;;;10.17;;
46589;SDS011;32313;48.722;9.362;2023-11-19T05:01:14;10.40;;;9.30;;
46589;SDS011;32313;48.722;9.362;2023-11-19T05:03:43;14.27;;;10.27;;
46589;SDS011;32313;48.722;9.362;2023-11-19T05:06:08;9.13;;;8.23;;
46589;SDS011;32313;48.722;9.362;2023-11-19T05:08:35;13.20;;;9.70;;
46589;SDS011;32313;48.722;9.362;2023-11-19T05:11:00;11.13;;;9.07;;
46589;SDS011;32313;48.722;9.362;2023-11-19T05:13:26;8.47;;;7.63;;
46589;SDS011;32313;48.722;9.362;2023-11-19T05:15:52;8.93;;;8.13;;
46589;SDS011;32313;48.722;9.362;2023-11-19T05:18:17;11.17;;;10.13;;
46589;SDS011;32313;48.722;9.362;2023-11-19T05:20:44;11.40;;;10.20;;
46589;SDS011;32313;48.722;9.362;2023-11-19T05:23:10;13.53;;;10.90;;
46589;SDS011;32313;48.722;9.362;2023-11-19T05:25:36;12.17;;;11.07;;
46589;SDS011;32313;48.722;9.362;2023-11-19T05:28:02;14.70;;;13.23;;
46589;SDS011;32313;48.722;9.362;2023-11-19T05:30:27;17.30;;;15.70;;
46589;SDS011;32313;48.722;9.362;2023-11-19T05:32:53;11.70;;;10.50;;
46589;SDS011;32313;48.722;9.362;2023-11-19T05:35:19;10.70;;;9.20;;
46589;SDS011;32313;48.722;9.362;2023-11-19T05:37:44;13.33;;;12.03;;
46589;SDS011;32313;48.722;9.362;2023-11-19T05:40:10;9.63;;;8.63;;
46589;SDS011;32313;48.722;9.362;2023-11-19T05:42:42;7.20;;;6.70;;
46589;SDS011;32313;48.722;9.362;2023-11-19T05:45:10;9.70;;;8.77;;
46589;SDS011;32313;48.722;9.362;2023-11-19T05:47:37;7.50;;;6.80;;
46589;SDS011;32313;48.722;9.362;2023-11-19T05:50:02;6.07;;;5.60;;
46589;SDS011;32313;48.722;9.362;2023-11-19T05:52:31;6.60;;;6.00;;
46589;SDS011;32313;48.722;9.362;2023-11-19T05:55:01;4.90;;;4.60;;
46589;SDS011;32313;48.722;9.362;2023-11-19T05:57:34;5.40;;;4.97;;
46589;SDS011;32313;48.722;9.362;2023-11-19T06:00:03;4.77;;;4.47;;
46589;SDS011;32313;48.722;9.362;2023-11-19T06:02:36;4.30;;;4.00;;
46589;SDS011;32313;48.722;9.362;2023-11-19T06:05:05;3.77;;;3.47;;
46589;SDS011;32313;48.722;9.362;2023-11-19T06:07:32;3.50;;;3.30;;
46589;SDS011;32313;48.722;9.362;2023-11-19T06:09:58;3.30;;;3.10;;
46589;SDS011;32313;48.722;9.362;2023-11-19T06:12:24;3.20;;;3.00;;
46589;SDS011;32313;48.722;9.362;2023-11-19T06:14:50;2.90;;;2.70;;
46589;SDS011;32313;48.722;9.362;2023-11-19T06:17:15;3.10;;;2.90;;
46589;SDS011;32313;48.722;9.362;2023-11-19T06:19:41;2.97;;;2.87;;
46589;SDS011;32313;48.722;9.362;2023-11-19T06:22:07;3.20;;;2.80;;
46589;SDS011;32313;48.722;9.362;2023-11-19T06:24:32;3.10;;;2.90;;
46589;SDS011;32313;48.722;9.362;2023-11-19T06:26:58;3.17;;;3.07;;
46589;SDS011;32313;48.722;9.362;2023-11-19T06:29:23;3.10;;;3.00;;
46589;SDS011;32313;48.722;9.362;2023-11-19T06:31:49;3.13;;;2.93;;
46589;SDS011;32313;48.722;9.362;2023-11-19T06:34:15;3.03;;;2.90;;
46589;SDS011;32313;48.722;9.362;2023-11-19T06:36:41;2.60;;;2.50;;
46589;SDS011;32313;48.722;9.362;2023-11-19T06:39:10;4.10;;;3.07;;
46589;SDS011;32313;48.722;9.362;2023-11-19T06:41:38;3.67;;;3.30;;
46589;SDS011;32313;48.722;9.362;2023-11-19T06:44:04;3.20;;;3.00;;
46589;SDS011;32313;48.722;9.362;2023-11-19T06:46:30;2.97;;;2.77;;
46589;SDS011;32313;48.722;9.362;2023-11-19T06:48:56;3.37;;;3.10;;
46589;SDS011;32313;48.722;9.362;2023-11-19T06:51:22;3.10;;;2.90;;
46589;SDS011;32313;48.722;9.362;2023-11-19T06:53:49;2.70;;;2.60;;
46589;SDS011;32313;48.722;9.362;2023-11-19T06:56:21;2.80;;;2.70;;
46589;SDS011;32313;48.722;9.362;2023-11-19T06:58:48;2.93;;;2.70;;
46589;SDS011;32313;48.722;9.362;2023-11-19T07:01:15;2.80;;;2.60;;
46589;SDS011;32313;48.722;9.362;2023-11-19T07:03:41;2.60;;;2.40;;
46589;SDS011;32313;48.722;9.362;2023-11-19T07:06:07;2.53;;;2.43;;
46589;SDS011;32313;48.722;9.362;2023-11-19T07:08:33;3.07;;;2.87;;
46589;SDS011;32313;48.722;9.362;2023-11-19T07:10:59;2.60;;;2.43;;
46589;SDS011;32313;48.722;9.362;2023-11-19T07:13:25;2.83;;;2.63;;
46589;SDS011;32313;48.722;9.362;2023-11-19T07:15:53;2.60;;;2.50;;
46589;SDS011;32313;48.722;9.362;2023-11-19T07:18:19;2.60;;;2.50;;
46589;SDS011;32313;48.722;9.362;2023-11-19T07:20:47;2.40;;;2.30;;
46589;SDS011;32313;48.722;9.362;2023-11-19T07:23:13;3.63;;;2.90;;
46589;SDS011;32313;48.722;9.362;2023-11-19T07:25:44;2.73;;;2.57;;
46589;SDS011;32313;48.722;9.362;2023-11-19T07:28:14;2.87;;;2.67;;
46589;SDS011;32313;48.722;9.362;2023-11-19T07:30:40;2.80;;;2.60;;
46589;SDS011;32313;48.722;9.362;2023-11-19T07:33:06;2.83;;;2.63;;
46589;SDS011;32313;48.722;9.362;2023-11-19T07:35:33;2.67;;;2.57;;
46589;SDS011;32313;48.722;9.362;2023-11-19T07:37:59;3.77;;;2.50;;
46589;SDS011;32313;48.722;9.362;2023-11-19T07:40:24;2.30;;;2.20;;
46589;SDS011;32313;48.722;9.362;2023-11-19T07:42:50;3.23;;;2.60;;
46589;SDS011;32313;48.722;9.362;2023-11-19T07:45:16;2.40;;;2.20;;
46589;SDS011;32313;48.722;9.362;2023-11-19T07:47:42;2.40;;;2.30;;
46589;SDS011;32313;48.722;9.362;2023-11-19T07:50:10;2.43;;;2.33;;
46589;SDS011;32313;48.722;9.362;2023-11-19T07:52:36;2.30;;;2.20;;
46589;SDS011;32313;48.722;9.362;2023-11-19T07:55:02;2.57;;;2.40;;
46589;SDS011;32313;48.722;9.362;2023-11-19T07:57:28;2.40;;;2.30;;
46589;SDS011;32313;48.722;9.362;2023-11-19T07:59:56;2.30;;;2.20;;
46589;SDS011;32313;48.722;9.362;2023-11-19T08:02:26;2.50;;;2.30;;
46589;SDS011;32313;48.722;9.362;2023-11-19T08:04:52;2.43;;;2.20;;
46589;SDS011;32313;48.722;9.362;2023-11-19T08:07:20;2.37;;;2.27;;
46589;SDS011;32313;48.722;9.362;2023-11-19T08:09:48;2.10;;;2.00;;
46589;SDS011;32313;48.722;9.362;2023-11-19T08:12:14;2.20;;;2.10;;
46589;SDS011;32313;48.722;9.362;2023-11-19T08:14:40;2.17;;;2.07;;
46589;SDS011;32313;48.722;9.362;2023-11-19T08:17:06;2.43;;;2.23;;
46589;SDS011;32313;48.722;9.362;2023-11-19T08:19:32;2.33;;;2.13;;
46589;SDS011;32313;48.722;9.362;2023-11-19T08:21:58;2.00;;;1.90;;
46589;SDS011;32313;48.722;9.362;2023-11-19T08:24:24;2.20;;;2.10;;
46589;SDS011;32313;48.722;9.362;2023-11-19T08:26:50;2.20;;;2.10;;
46589;SDS011;32313;48.722;9.362;2023-11-19T08:29:15;2.20;;;2.10;;
46589;SDS011;32313;48.722;9.362;2023-11-19T08:31:41;2.20;;;2.10;;
46589;SDS011;32313;48.722;9.362;2023-11-19T08:34:07;2.60;;;2.40;;
46589;SDS011;32313;48.722;9.362;2023-11-19T08:36:34;2.40;;;2.20;;
46589;SDS011;32313;48.722;9.362;2023-11-19T08:39:00;2.13;;;2.03;;
46589;SDS011;32313;48.722;9.362;2023-11-19T08:41:25;2.23;;;2.13;;
46589;SDS011;32313;48.722;9.362;2023-11-19T08:43:52;2.30;;;2.20;;
46589;SDS011;32313;48.722;9.362;2023-11-19T08:46:18;2.20;;;2.10;;
46589;SDS011;32313;48.722;9.362;2023-11-19T08:48:44;2.10;;;2.00;;
46589;SDS011;32313;48.722;9.362;2023-11-19T08:51:09;2.17;;;1.97;;
46589;SDS011;32313;48.722;9.362;2023-11-19T08:53:35;2.23;;;2.13;;
46589;SDS011;32313;48.722;9.362;2023-11-19T08:56:01;2.00;;;1.90;;
46589;SDS011;32313;48.722;9.362;2023-11-19T08:58:28;2.00;;;1.90;;
46589;SDS011;32313;48.722;9.362;2023-11-19T09:00:54;1.90;;;1.80;;
46589;SDS011;32313;48.722;9.362;2023-11-19T09:03:20;2.00;;;1.90;;
46589;SDS011;32313;48.722;9.362;2023-11-19T09:05:46;2.00;;;1.90;;
46589;SDS011;32313;48.722;9.362;2023-11-19T09:08:11;2.03;;;1.80;;
46589;SDS011;32313;48.722;9.362;2023-11-19T09:10:37;2.10;;;2.00;;
46589;SDS011;32313;48.722;9.362;2023-11-19T09:13:03;2.33;;;2.23;;
46589;SDS011;32313;48.722;9.362;2023-11-19T09:15:29;1.80;;;1.70;;
46589;SDS011;32313;48.722;9.362;2023-11-19T09:17:55;2.30;;;1.70;;
46589;SDS011;32313;48.722;9.362;2023-11-19T09:20:21;1.97;;;1.70;;
46589;SDS011;32313;48.722;9.362;2023-11-19T09:22:47;1.80;;;1.70;;
46589;SDS011;32313;48.722;9.362;2023-11-19T09:25:13;2.30;;;1.70;;
46589;SDS011;32313;48.722;9.362;2023-11-19T09:27:42;1.80;;;1.70;;
46589;SDS011;32313;48.722;9.362;2023-11-19T09:30:08;1.80;;;1.70;;
46589;SDS011;32313;48.722;9.362;2023-11-19T09:32:35;1.80;;;1.70;;
46589;SDS011;32313;48.722;9.362;2023-11-19T09:35:00;1.77;;;1.67;;
46589;SDS011;32313;48.722;9.362;2023-11-19T09:37:28;1.70;;;1.60;;
46589;SDS011;32313;48.722;9.362;2023-11-19T09:39:53;1.70;;;1.53;;
46589;SDS011;32313;48.722;9.362;2023-11-19T09:42:19;1.73;;;1.63;;
46589;SDS011;32313;48.722;9.362;2023-11-19T09:44:45;2.97;;;1.80;;
46589;SDS011;32313;48.722;9.362;2023-11-19T09:47:13;1.80;;;1.70;;
46589;SDS011;32313;48.722;9.362;2023-11-19T09:49:41;2.13;;;1.70;;
46589;SDS011;32313;48.722;9.362;2023-11-19T09:52:08;1.60;;;1.60;;
46589;SDS011;32313;48.722;9.362;2023-11-19T09:54:34;1.87;;;1.60;;
46589;SDS011;32313;48.722;9.362;2023-11-19T09:57:00;2.07;;;1.73;;
46589;SDS011;32313;48.722;9.362;2023-11-19T09:59:30;1.60;;;1.50;;
46589;SDS011;32313;48.722;9.362;2023-11-19T10:01:56;1.80;;;1.70;;
46589;SDS011;32313;48.722;9.362;2023-11-19T10:04:22;1.77;;;1.67;;
46589;SDS011;32313;48.722;9.362;2023-11-19T10:06:50;1.87;;;1.50;;
46589;SDS011;32313;48.722;9.362;2023-11-19T10:09:17;1.53;;;1.50;;
46589;SDS011;32313;48.722;9.362;2023-11-19T10:11:42;1.40;;;1.30;;
46589;SDS011;32313;48.722;9.362;2023-11-19T10:14:08;1.50;;;1.47;;
46589;SDS011;32313;48.722;9.362;2023-11-19T10:16:34;1.63;;;1.20;;
46589;SDS011;32313;48.722;9.362;2023-11-19T10:19:00;1.60;;;1.50;;
46589;SDS011;32313;48.722;9.362;2023-11-19T10:21:26;1.67;;;1.57;;
46589;SDS011;32313;48.722;9.362;2023-11-19T10:26:19;1.77;;;1.27;;
46589;SDS011;32313;48.722;9.362;2023-11-19T10:28:49;1.20;;;1.20;;
46589;SDS011;32313;48.722;9.362;2023-11-19T10:31:15;1.27;;;1.20;;
46589;SDS011;32313;48.722;9.362;2023-11-19T10:33:43;2.17;;;1.30;;
46589;SDS011;32313;48.722;9.362;2023-11-19T10:36:10;2.33;;;1.17;;
46589;SDS011;32313;48.722;9.362;2023-11-19T10:38:39;2.10;;;1.40;;
46589;SDS011;32313;48.722;9.362;2023-11-19T10:41:06;1.30;;;1.20;;
46589;SDS011;32313;48.722;9.362;2023-11-19T10:43:42;3.87;;;1.60;;
46589;SDS011;32313;48.722;9.362;2023-11-19T10:46:13;1.40;;;1.30;;
46589;SDS011;32313;48.722;9.362;2023-11-19T10:48:39;1.30;;;1.30;;
46589;SDS011;32313;48.722;9.362;2023-11-19T10:51:06;1.80;;;1.43;;
46589;SDS011;32313;48.722;9.362;2023-11-19T10:53:36;1.60;;;1.50;;
46589;SDS011;32313;48.722;9.362;2023-11-19T10:56:06;1.50;;;1.40;;
46589;SDS011;32313;48.722;9.362;2023-11-19T10:58:36;1.40;;;1.33;;
46589;SDS011;32313;48.722;9.362;2023-11-19T11:01:08;1.30;;;1.30;;
46589;SDS011;32313;48.722;9.362;2023-11-19T11:03:41;1.57;;;1.40;;
46589;SDS011;32313;48.722;9.362;2023-11-19T11:06:11;1.13;;;1.13;;
46589;SDS011;32313;48.722;9.362;2023-11-19T11:08:38;1.40;;;1.30;;
46589;SDS011;32313;48.722;9.362;2023-11-19T11:11:05;1.40;;;1.30;;
46589;SDS011;32313;48.722;9.362;2023-11-19T11:13:32;1.30;;;1.30;;
46589;SDS011;32313;48.722;9.362;2023-11-19T11:15:59;1.73;;;1.30;;
46589;SDS011;32313;48.722;9.362;2023-11-19T11:18:25;1.47;;;1.37;;
46589;SDS011;32313;48.722;9.362;2023-11-19T11:39:53;1.50;;;1.40;;
46589;SDS011;32313;48.722;9.362;2023-11-19T11:47:25;1.70;;;1.60;;
46589;SDS011;32313;48.722;9.362;2023-11-19T11:49:51;1.70;;;1.60;;
46589;SDS011;32313;48.722;9.362;2023-11-19T11:52:18;1.30;;;1.30;;
46589;SDS011;32313;48.722;9.362;2023-11-19T11:54:44;1.70;;;1.60;;
46589;SDS011;32313;48.722;9.362;2023-11-19T11:57:12;1.60;;;1.50;;
46589;SDS011;32313;48.722;9.362;2023-11-19T12:02:17;2.13;;;1.40;;
46589;SDS011;32313;48.722;9.362;2023-11-19T12:04:46;1.97;;;1.43;;
46589;SDS011;32313;48.722;9.362;2023-11-19T12:07:23;1.87;;;1.50;;
46589;SDS011;32313;48.722;9.362;2023-11-19T12:09:53;1.60;;;1.43;;
46589;SDS011;32313;48.722;9.362;2023-11-19T12:12:32;2.13;;;1.37;;
46589;SDS011;32313;48.722;9.362;2023-11-19T12:20:02;1.70;;;1.60;;
46589;SDS011;32313;48.722;9.362;2023-11-19T12:22:31;1.50;;;1.40;;
46589;SDS011;32313;48.722;9.362;2023-11-19T12:24:57;1.73;;;1.10;;
46589;SDS011;32313;48.722;9.362;2023-11-19T12:27:23;1.80;;;1.20;;
46589;SDS011;32313;48.722;9.362;2023-11-19T12:29:49;1.40;;;1.00;;
46589;SDS011;32313;48.722;9.362;2023-11-19T12:32:15;1.83;;;1.10;;
46589;SDS011;32313;48.722;9.362;2023-11-19T12:34:41;2.50;;;1.17;;
46589;SDS011;32313;48.722;9.362;2023-11-19T12:37:07;1.47;;;1.37;;
46589;SDS011;32313;48.722;9.362;2023-11-19T12:39:36;1.87;;;1.30;;
46589;SDS011;32313;48.722;9.362;2023-11-19T12:42:01;1.00;;;1.00;;
46589;SDS011;32313;48.722;9.362;2023-11-19T12:44:27;1.67;;;1.30;;
46589;SDS011;32313;48.722;9.362;2023-11-19T12:47:03;2.07;;;1.30;;
46589;SDS011;32313;48.722;9.362;2023-11-19T12:49:29;1.57;;;1.30;;
46589;SDS011;32313;48.722;9.362;2023-11-19T12:51:55;2.63;;;1.47;;
46589;SDS011;32313;48.722;9.362;2023-11-19T12:54:36;2.40;;;1.37;;
46589;SDS011;32313;48.722;9.362;2023-11-19T12:57:03;1.10;;;1.10;;
46589;SDS011;32313;48.722;9.362;2023-11-19T12:59:30;1.53;;;1.20;;
46589;SDS011;32313;48.722;9.362;2023-11-19T13:01:59;3.10;;;1.30;;
46589;SDS011;32313;48.722;9.362;2023-11-19T13:04:28;1.30;;;1.20;;
46589;SDS011;32313;48.722;9.362;2023-11-19T13:06:59;2.50;;;1.20;;
46589;SDS011;32313;48.722;9.362;2023-11-19T13:09:27;2.53;;;1.20;;
46589;SDS011;32313;48.722;9.362;2023-11-19T13:11:54;1.10;;;1.00;;
46589;SDS011;32313;48.722;9.362;2023-11-19T13:14:21;1.30;;;1.20;;
46589;SDS011;32313;48.722;9.362;2023-11-19T13:16:48;1.37;;;1.27;;
46589;SDS011;32313;48.722;9.362;2023-11-19T13:19:14;1.10;;;1.00;;
46589;SDS011;32313;48.722;9.362;2023-11-19T13:21:44;1.00;;;1.00;;
46589;SDS011;32313;48.722;9.362;2023-11-19T13:24:12;1.13;;;1.10;;
46589;SDS011;32313;48.722;9.362;2023-11-19T13:26:38;1.53;;;1.20;;
46589;SDS011;32313;48.722;9.362;2023-11-19T13:29:04;2.13;;;1.10;;
46589;SDS011;32313;48.722;9.362;2023-11-19T13:31:30;1.47;;;1.10;;
46589;SDS011;32313;48.722;9.362;2023-11-19T13:33:56;2.93;;;1.53;;
46589;SDS011;32313;48.722;9.362;2023-11-19T13:36:23;1.93;;;1.40;;
46589;SDS011;32313;48.722;9.362;2023-11-19T13:38:49;1.90;;;1.53;;
46589;SDS011;32313;48.722;9.362;2023-11-19T13:41:15;1.80;;;1.30;;
46589;SDS011;32313;48.722;9.362;2023-11-19T13:43:41;1.43;;;1.33;;
46589;SDS011;32313;48.722;9.362;2023-11-19T13:46:06;1.30;;;1.20;;
46589;SDS011;32313;48.722;9.362;2023-11-19T13:48:35;2.57;;;1.40;;
46589;SDS011;32313;48.722;9.362;2023-11-19T13:51:00;1.50;;;1.40;;
46589;SDS011;32313;48.722;9.362;2023-11-19T13:53:26;1.63;;;1.50;;
46589;SDS011;32313;48.722;9.362;2023-11-19T13:55:52;2.07;;;1.70;;
46589;SDS011;32313;48.722;9.362;2023-11-19T13:58:18;2.63;;;1.73;;
46589;SDS011;32313;48.722;9.362;2023-11-19T14:00:43;1.80;;;1.70;;
46589;SDS011;32313;48.722;9.362;2023-11-19T14:03:09;1.50;;;1.40;;
46589;SDS011;32313;48.722;9.362;2023-11-19T14:05:38;1.63;;;1.53;;
46589;SDS011;32313;48.722;9.362;2023-11-19T14:08:06;1.97;;;1.57;;
46589;SDS011;32313;48.722;9.362;2023-11-19T14:10:38;1.70;;;1.60;;
46589;SDS011;32313;48.722;9.362;2023-11-19T14:13:05;1.97;;;1.70;;
46589;SDS011;32313;48.722;9.362;2023-11-19T14:15:31;1.93;;;1.70;;
46589;SDS011;32313;48.722;9.362;2023-11-19T14:17:57;1.63;;;1.53;;
46589;SDS011;32313;48.722;9.362;2023-11-19T14:20:23;2.60;;;1.80;;
46589;SDS011;32313;48.722;9.362;2023-11-19T14:22:49;2.27;;;1.50;;
46589;SDS011;32313;48.722;9.362;2023-11-19T14:25:16;2.03;;;1.50;;
46589;SDS011;32313;48.722;9.362;2023-11-19T14:27:42;1.53;;;1.43;;
46589;SDS011;32313;48.722;9.362;2023-11-19T14:30:10;1.53;;;1.40;;
46589;SDS011;32313;48.722;9.362;2023-11-19T14:32:38;2.00;;;1.60;;
46589;SDS011;32313;48.722;9.362;2023-11-19T14:35:05;2.83;;;1.50;;
46589;SDS011;32313;48.722;9.362;2023-11-19T14:37:32;2.50;;;1.80;;
46589;SDS011;32313;48.722;9.362;2023-11-19T14:39:58;2.00;;;1.50;;
46589;SDS011;32313;48.722;9.362;2023-11-19T14:42:25;2.30;;;1.50;;
46589;SDS011;32313;48.722;9.362;2023-11-19T14:44:51;1.67;;;1.57;;
46589;SDS011;32313;48.722;9.362;2023-11-19T14:47:20;1.53;;;1.43;;
46589;SDS011;32313;48.722;9.362;2023-11-19T14:49:47;1.70;;;1.60;;
46589;SDS011;32313;48.722;9.362;2023-11-19T14:52:12;1.70;;;1.60;;
46589;SDS011;32313;48.722;9.362;2023-11-19T14:54:38;1.90;;;1.80;;
46589;SDS011;32313;48.722;9.362;2023-11-19T14:57:05;2.40;;;1.93;;
46589;SDS011;32313;48.722;9.362;2023-11-19T14:59:31;2.43;;;1.90;;
46589;SDS011;32313;48.722;9.362;2023-11-19T15:01:58;2.10;;;2.00;;
46589;SDS011;32313;48.722;9.362;2023-11-19T15:04:26;2.30;;;2.00;;
46589;SDS011;32313;48.722;9.362;2023-11-19T15:06:52;2.20;;;2.00;;
46589;SDS011;32313;48.722;9.362;2023-11-19T15:09:18;3.07;;;1.90;;
46589;SDS011;32313;48.722;9.362;2023-11-19T15:11:46;1.77;;;1.67;;